createdAt,value
2023-04-10T00:00:38.506Z,92.80
2023-04-10T00:03:06.054Z,92.70
2023-04-10T00:05:33.275Z,92.90
2023-04-10T00:08:00.511Z,93.90
2023-04-10T00:10:29.379Z,92.90
2023-04-10T00:12:56.532Z,92.70
2023-04-10T00:15:23.806Z,92.80
2023-04-10T00:17:55.252Z,92.90
2023-04-10T00:20:23.355Z,93.20
2023-04-10T00:22:50.346Z,93.60
2023-04-10T00:25:17.368Z,93.30
2023-04-10T00:27:44.210Z,93.50
2023-04-10T00:30:11.353Z,93.30
2023-04-10T00:32:38.781Z,93.40
2023-04-10T00:35:06.163Z,93.20
2023-04-10T00:37:33.048Z,93.60
2023-04-10T00:40:00.666Z,93.80
2023-04-10T00:42:27.500Z,93.60
2023-04-10T00:44:54.540Z,94.30
2023-04-10T00:47:21.906Z,94.30
2023-04-10T00:49:49.052Z,94.20
2023-04-10T00:52:16.096Z,94.10
2023-04-10T00:54:43.036Z,94.40
2023-04-10T00:57:10.467Z,94.10
2023-04-10T00:59:37.545Z,94.40
2023-04-10T01:02:04.742Z,94.50
2023-04-10T01:04:32.787Z,94.50
2023-04-10T01:07:25.712Z,94.80
2023-04-10T01:09:55.424Z,94.60
2023-04-10T01:12:39.300Z,94.70
2023-04-10T01:15:20.950Z,94.80
2023-04-10T01:18:11.460Z,94.80
2023-04-10T01:20:40.170Z,95.20
2023-04-10T01:23:16.509Z,95.00
2023-04-10T01:25:53.993Z,95.70
2023-04-10T01:28:26.733Z,95.90
2023-04-10T01:31:00.563Z,95.20
2023-04-10T01:33:35.307Z,95.90
2023-04-10T01:36:06.282Z,95.50
2023-04-10T01:38:34.115Z,95.30
2023-04-10T01:41:01.881Z,95.30
2023-04-10T01:43:31.506Z,95.40
2023-04-10T01:46:00.346Z,95.30
2023-04-10T01:48:28.235Z,95.30
2023-04-10T01:50:57.334Z,95.30
2023-04-10T01:53:24.977Z,95.20
2023-04-10T01:55:53.610Z,95.30
2023-04-10T01:58:20.756Z,95.50
2023-04-10T02:00:47.794Z,95.50
2023-04-10T02:03:15.023Z,95.60
2023-04-10T02:06:17.907Z,95.80
2023-04-10T02:08:55.130Z,95.70
2023-04-10T02:11:30.040Z,96.00
2023-04-10T02:14:01.108Z,95.90
2023-04-10T02:16:30.720Z,96.20
2023-04-10T02:19:00.108Z,95.70
2023-04-10T02:21:27.605Z,95.60
2023-04-10T02:23:56.504Z,95.80
2023-04-10T02:26:23.282Z,95.70
2023-04-10T02:28:50.140Z,95.80
2023-04-10T02:31:17.610Z,95.80
2023-04-10T02:33:44.639Z,96.50
2023-04-10T02:36:11.610Z,96.10
2023-04-10T02:38:38.760Z,95.90
2023-04-10T02:41:05.858Z,96.20
2023-04-10T02:43:32.805Z,96.40
2023-04-10T02:46:00.139Z,96.20
2023-04-10T02:48:27.004Z,96.70
2023-04-10T02:50:59.993Z,96.50
2023-04-10T02:53:26.847Z,97.00
2023-04-10T02:55:54.947Z,97.10
2023-04-10T02:58:24.502Z,96.60
2023-04-10T03:00:52.271Z,96.90
2023-04-10T03:03:20.020Z,96.70
2023-04-10T03:05:49.543Z,97.20
2023-04-10T03:08:17.649Z,96.80
2023-04-10T03:10:48.646Z,97.40
2023-04-10T03:13:16.026Z,97.30
2023-04-10T03:15:43.083Z,97.10
2023-04-10T03:18:10.819Z,98.10
2023-04-10T03:20:38.996Z,97.60
2023-04-10T03:23:07.541Z,97.20
2023-04-10T03:25:34.963Z,97.70
2023-04-10T03:28:02.146Z,97.30
2023-04-10T03:30:29.314Z,97.70
2023-04-10T03:32:56.160Z,97.80
2023-04-10T03:35:23.104Z,97.50
2023-04-10T03:37:49.942Z,98.00
2023-04-10T03:40:16.811Z,98.30
2023-04-10T03:42:43.553Z,98.20
2023-04-10T03:45:11.187Z,98.20
2023-04-10T03:47:38.396Z,97.80
2023-04-10T03:50:05.994Z,97.80
2023-04-10T03:52:32.889Z,97.70
2023-04-10T03:54:59.781Z,97.90
2023-04-10T03:57:26.632Z,97.80
2023-04-10T03:59:53.459Z,98.00
2023-04-10T04:02:20.371Z,98.40
2023-04-10T04:04:47.769Z,98.00
2023-04-10T04:07:14.794Z,98.80
2023-04-10T04:09:41.656Z,98.50
2023-04-10T04:12:08.819Z,98.40
2023-04-10T04:14:35.854Z,98.40
2023-04-10T04:17:02.799Z,98.20
2023-04-10T04:19:30.132Z,98.80
2023-04-10T08:42:29.204Z,98.20
2023-04-10T08:44:56.027Z,84.30
2023-04-10T08:47:27.909Z,82.60
2023-04-10T08:49:57.903Z,82.50
2023-04-10T08:52:31.546Z,82.90
2023-04-10T08:55:00.435Z,83.20
2023-04-10T08:57:27.994Z,82.80
2023-04-10T08:59:55.578Z,82.80
2023-04-10T09:02:22.857Z,83.30
2023-04-10T09:04:51.895Z,82.80
2023-04-10T09:07:18.826Z,82.60
2023-04-10T09:09:45.660Z,83.20
2023-04-10T09:12:16.597Z,82.80
2023-04-10T09:14:43.730Z,81.80
2023-04-10T09:17:19.434Z,81.60
2023-04-10T09:19:49.483Z,81.70
2023-04-10T09:22:17.001Z,80.00
2023-04-10T09:24:45.232Z,79.70
2023-04-10T09:27:29.134Z,79.50
2023-04-10T09:29:56.103Z,79.40
2023-04-10T09:35:10.831Z,77.80
2023-04-10T09:37:38.672Z,78.30
2023-04-10T09:40:06.396Z,78.10
2023-04-10T09:42:37.509Z,77.30
2023-04-10T09:45:05.637Z,76.90
2023-04-10T09:47:33.118Z,77.40
2023-04-10T09:50:01.037Z,76.70
2023-04-10T09:52:30.504Z,77.20
2023-04-10T09:55:03.622Z,76.70
2023-04-10T09:57:32.230Z,76.40
2023-04-10T10:00:00.822Z,75.90
2023-04-10T10:02:31.677Z,75.30
2023-04-10T10:05:01.903Z,75.20
2023-04-10T10:07:30.832Z,75.40
2023-04-10T10:09:58.946Z,75.40
2023-04-10T10:12:40.106Z,75.00
2023-04-10T10:15:18.779Z,75.60
2023-04-10T10:18:04.608Z,75.30
2023-04-10T10:20:35.338Z,74.90
2023-04-10T10:23:03.907Z,73.70
2023-04-10T10:25:31.669Z,73.70
2023-04-10T10:28:02.271Z,72.90
2023-04-10T10:30:30.769Z,72.20
2023-04-10T10:33:00.699Z,72.30
2023-04-10T10:35:29.526Z,71.50
2023-04-10T10:38:00.224Z,71.00
2023-04-10T10:40:37.484Z,70.40
2023-04-10T10:43:48.659Z,70.30
2023-04-10T10:46:22.279Z,70.30
2023-04-10T10:48:59.386Z,69.60
2023-04-10T10:51:52.542Z,69.40
2023-04-10T10:54:42.469Z,69.50
2023-04-10T10:57:46.588Z,68.90
2023-04-10T11:00:13.894Z,68.00
2023-04-10T11:02:40.813Z,68.40
2023-04-10T11:05:07.993Z,68.30
2023-04-10T11:08:06.815Z,68.10
2023-04-10T11:11:08.156Z,67.50
2023-04-10T11:13:38.198Z,67.80
2023-04-10T11:16:07.136Z,67.40
2023-04-10T11:18:46.142Z,66.20
2023-04-10T11:21:17.487Z,66.10
2023-04-10T11:23:50.629Z,65.90
2023-04-10T11:26:36.913Z,65.70
2023-04-10T11:29:05.620Z,64.00
2023-04-10T11:31:33.758Z,64.70
2023-04-10T11:34:04.377Z,64.90
2023-04-10T11:36:32.242Z,64.40
2023-04-10T11:39:10.321Z,64.50
2023-04-10T11:41:39.202Z,64.30
2023-04-10T11:44:07.603Z,63.60
2023-04-10T11:46:39.031Z,64.00
2023-04-10T11:49:07.954Z,64.30
2023-04-10T11:51:34.755Z,65.10
2023-04-10T11:54:12.417Z,64.70
2023-04-10T11:56:41.086Z,63.60
2023-04-10T11:59:10.987Z,64.40
2023-04-10T12:01:39.944Z,64.10
2023-04-10T12:04:20.202Z,63.90
2023-04-10T12:06:56.465Z,63.40
2023-04-10T12:09:23.701Z,63.00
2023-04-10T12:12:03.532Z,62.50
2023-04-10T12:14:41.720Z,61.90
2023-04-10T12:17:12.972Z,62.50
2023-04-10T12:19:40.290Z,63.40
2023-04-10T12:22:07.761Z,62.30
2023-04-10T12:24:51.830Z,62.10
2023-04-10T12:27:29.273Z,61.20
2023-04-10T12:29:58.326Z,61.30
2023-04-10T12:32:27.268Z,60.80
2023-04-10T12:35:01.207Z,61.20
2023-04-10T12:37:55.653Z,60.80
2023-04-10T12:40:22.443Z,61.60
2023-04-10T12:42:49.220Z,61.10
2023-04-10T22:36:34.150Z,60.30
2023-04-10T22:39:01.360Z,99.90
2023-04-10T22:41:29.850Z,99.90
2023-04-10T22:43:56.688Z,99.90
2023-04-10T22:46:23.750Z,99.90
2023-04-10T22:48:50.774Z,99.90
2023-04-10T22:51:18.076Z,99.90
2023-04-10T22:53:44.865Z,99.90
2023-04-10T22:56:11.823Z,99.90
2023-04-10T22:58:40.060Z,99.90
2023-04-10T23:01:08.365Z,99.90
2023-04-10T23:03:35.982Z,99.90
2023-04-10T23:06:03.154Z,99.90
2023-04-10T23:08:30.036Z,99.90
2023-04-10T23:10:57.334Z,99.90
2023-04-10T23:13:24.431Z,99.90
2023-04-10T23:15:52.639Z,99.90
2023-04-10T23:18:19.771Z,99.90
2023-04-10T23:20:47.370Z,99.90
2023-04-10T23:23:14.446Z,99.90
2023-04-10T23:25:41.672Z,99.90
2023-04-10T23:28:08.671Z,99.90
2023-04-10T23:30:39.347Z,99.90
2023-04-10T23:33:06.396Z,99.90
2023-04-10T23:35:33.243Z,99.90
2023-04-10T23:38:00.984Z,99.90
2023-04-10T23:40:27.931Z,99.90
2023-04-10T23:42:54.846Z,99.90
2023-04-10T23:45:21.661Z,99.90
2023-04-10T23:47:50.657Z,99.90
2023-04-10T23:50:17.949Z,99.90
2023-04-10T23:52:51.206Z,99.90
2023-04-10T23:55:18.678Z,99.90
2023-04-10T23:57:45.641Z,99.90
